Time;durP1;ratioP1;P1;durP2;ratioP2;P2;SDS_P1;SDS_P2;PMS_P1;PMS_P2;Temp;Humidity;BMP_temperature;BMP_pressure;BME280_temperature;BME280_humidity;BME280_pressure;Samples;Min_cycle;Max_cycle;Signal;HPM_P1;HPM_P2
2022/03/23 00:01:34;;;;;;;24.83;11.70;;;;;;;2.09;66.07;100268.66;5056622;28;20169;-83
2022/03/23 00:04:00;;;;;;;20.87;9.40;;;;;;;3.22;66.23;100478.94;5056626;28;20404;-84
2022/03/23 00:06:25;;;;;;;19.47;8.10;;;;;;;2.24;67.43;100332.50;5056504;28;20415;-83
2022/03/23 00:08:51;;;;;;;17.43;7.57;;;;;;;2.64;68.35;100415.31;5039150;28;20176;-84
2022/03/23 00:11:17;;;;;;;14.83;7.33;;;;;;;3.31;69.00;100571.47;5042169;28;20169;-85
2022/03/23 00:13:43;;;;;;;16.40;7.67;;;;;;;3.04;69.23;100489.81;5058409;28;20149;-81
2022/03/23 00:16:08;;;;;;;22.47;9.13;;;;;;;3.08;68.58;100518.50;5057102;28;20615;-83
2022/03/23 00:18:33;;;;;;;18.90;7.43;;;;;;;1.89;69.79;100326.81;5037723;28;20177;-85
2022/03/23 00:20:59;;;;;;;18.07;7.77;;;;;;;1.22;70.44;100253.91;5058841;28;20169;-83
2022/03/23 00:23:25;;;;;;;17.10;8.17;;;;;;;1.64;69.95;100306.19;5060074;28;20196;-83
2022/03/23 00:25:50;;;;;;;16.30;8.53;;;;;;;1.27;70.66;100243.63;5058973;28;20630;-83
2022/03/23 00:28:16;;;;;;;12.67;5.73;;;;;;;1.10;70.13;100211.25;5059166;28;20194;-83
2022/03/23 00:30:42;;;;;;;16.63;7.97;;;;;;;1.01;71.49;100237.84;5060544;28;20204;-84
2022/03/23 00:33:08;;;;;;;16.57;7.30;;;;;;;0.83;70.72;100176.28;5041842;28;20170;-85
2022/03/23 00:35:33;;;;;;;18.23;7.87;;;;;;;1.47;71.06;100308.72;5059778;28;20396;-83
2022/03/23 00:38:00;;;;;;;20.30;8.40;;;;;;;2.68;70.03;100483.97;5059133;28;20165;-83
2022/03/23 00:40:28;;;;;;;16.83;7.50;;;;;;;1.20;69.90;100228.84;5058424;28;20233;-83
2022/03/23 00:42:58;;;;;;;17.10;7.20;;;;;;;2.17;71.10;100445.94;5058967;28;20396;-83
2022/03/23 00:45:24;;;;;;;16.13;7.10;;;;;;;1.98;71.85;100446.63;5057527;28;20403;-83
2022/03/23 00:47:50;;;;;;;19.93;7.90;;;;;;;0.54;71.23;100176.94;5058477;28;20448;-83
2022/03/23 00:50:16;;;;;;;16.87;7.07;;;;;;;0.54;72.02;100186.91;5058235;28;20477;-85
2022/03/23 00:52:42;;;;;;;17.57;7.73;;;;;;;2.18;71.91;100507.66;5058720;28;20168;-83
2022/03/23 00:55:09;;;;;;;15.73;6.93;;;;;;;2.16;71.89;100498.28;5059311;28;20311;-83
2022/03/23 00:57:38;;;;;;;16.70;7.70;;;;;;;2.65;71.46;100593.66;5058750;28;20388;-84
2022/03/23 01:00:06;;;;;;;13.43;6.67;;;;;;;0.83;71.61;100289.31;5059114;28;20400;-84
2022/03/23 01:02:34;;;;;;;15.70;7.23;;;;;;;2.42;72.14;100571.53;5058464;28;20916;-84
2022/03/23 01:05:00;;;;;;;18.00;7.50;;;;;;;0.80;71.71;100295.59;5058315;28;20404;-82
2022/03/23 01:07:25;;;;;;;16.10;8.13;;;;;;;1.14;70.90;100311.44;5058886;28;20447;-85
2022/03/23 01:09:51;;;;;;;17.40;7.63;;;;;;;1.15;70.92;100319.81;5058419;28;20161;-85
2022/03/23 01:12:16;;;;;;;19.97;7.70;;;;;;;1.42;70.83;100332.38;5058663;28;20553;-84
2022/03/23 01:14:42;;;;;;;23.27;9.10;;;;;;;1.85;70.52;100431.19;5058287;28;20248;-85
2022/03/23 01:17:08;;;;;;;23.43;10.30;;;;;;;2.84;70.58;100560.53;5058849;28;20604;-83
2022/03/23 01:19:33;;;;;;;23.83;9.37;;;;;;;2.61;71.91;100561.66;5041605;28;20177;-84
2022/03/23 01:21:58;;;;;;;22.97;10.17;;;;;;;0.32;71.56;100164.78;5055927;28;20303;-84
2022/03/23 01:24:24;;;;;;;23.90;10.80;;;;;;;1.31;71.38;100320.50;5035459;28;20318;-82
2022/03/23 01:26:49;;;;;;;33.53;12.03;;;;;;;2.89;70.84;100581.81;5053592;28;20272;-83
2022/03/23 01:29:15;;;;;;;24.30;10.37;;;;;;;1.58;71.31;100332.19;5053513;28;20165;-83
2022/03/23 01:31:40;;;;;;;26.83;10.30;;;;;;;2.75;72.16;100558.78;5052727;28;20161;-83
2022/03/23 01:34:06;;;;;;;28.93;11.63;;;;;;;0.63;72.17;100218.41;5053083;28;20166;-83
2022/03/23 01:36:31;;;;;;;28.07;12.70;;;;;;;2.09;72.20;100423.50;5052920;28;20166;-84
2022/03/23 01:38:58;;;;;;;31.30;13.20;;;;;;;2.72;73.91;100561.03;5052797;28;20220;-83
2022/03/23 01:41:24;;;;;;;28.67;13.43;;;;;;;2.62;74.96;100559.28;5034610;28;20391;-83
2022/03/23 01:43:50;;;;;;;35.17;15.07;;;;;;;1.66;75.52;100392.06;5053385;28;20876;-83
2022/03/23 01:46:19;;;;;;;38.90;14.50;;;;;;;2.47;75.43;100556.97;5053175;28;20400;-83
2022/03/23 01:48:46;;;;;;;31.20;14.93;;;;;;;2.18;76.53;100541.75;5052888;28;20543;-83
2022/03/23 01:51:13;;;;;;;35.13;15.17;;;;;;;2.53;76.01;100570.91;5053317;28;20463;-83
2022/03/23 01:53:38;;;;;;;39.47;15.10;;;;;;;2.45;75.33;100534.31;5064682;28;20426;-82
2022/03/23 01:56:04;;;;;;;33.20;15.33;;;;;;;2.16;75.92;100508.25;5064285;28;20400;-83
2022/03/23 01:58:30;;;;;;;27.33;12.70;;;;;;;2.27;76.32;100558.50;5068848;28;20252;-84
2022/03/23 02:00:55;;;;;;;32.53;14.27;;;;;;;2.39;76.07;100556.25;5077401;28;20430;-83
2022/03/23 02:03:21;;;;;;;28.43;12.90;;;;;;;2.50;76.07;100568.13;5053619;28;20549;-85
2022/03/23 02:05:47;;;;;;;29.00;12.67;;;;;;;1.29;76.16;100386.84;5053146;28;20200;-82
2022/03/23 02:08:13;;;;;;;29.13;12.73;;;;;;;1.08;76.11;100349.84;5052858;28;20212;-84
2022/03/23 02:10:40;;;;;;;33.20;14.27;;;;;;;2.27;76.01;100562.59;5036562;28;20994;-82
2022/03/23 02:13:06;;;;;;;33.20;14.87;;;;;;;1.05;75.51;100339.59;5055736;28;20547;-83
2022/03/23 02:15:32;;;;;;;33.47;13.80;;;;;;;-0.24;75.45;100124.50;5053010;28;20420;-83
2022/03/23 02:17:58;;;;;;;35.23;13.80;;;;;;;2.28;76.37;100559.38;5052667;28;20394;-84
2022/03/23 02:20:24;;;;;;;32.97;13.87;;;;;;;0.08;75.28;100188.22;5035456;28;20165;-84
2022/03/23 02:22:50;;;;;;;29.97;12.80;;;;;;;0.04;74.54;100138.88;5052386;28;20211;-84
2022/03/23 02:25:22;;;;;;;29.83;13.27;;;;;;;2.54;75.20;100562.69;5052374;28;20895;-84
2022/03/23 02:27:48;;;;;;;30.50;13.37;;;;;;;0.72;75.11;100259.13;5052528;28;20189;-84
2022/03/23 02:30:14;;;;;;;30.70;13.13;;;;;;;1.69;74.99;100422.28;5053992;28;20434;-83
2022/03/23 02:32:39;;;;;;;29.10;12.87;;;;;;;2.38;74.43;100565.38;5053584;28;20822;-83
2022/03/23 02:35:07;;;;;;;22.07;10.30;;;;;;;2.09;76.60;100546.75;5051790;28;20189;-84
2022/03/23 02:37:32;;;;;;;15.20;7.73;;;;;;;-0.21;76.98;100153.06;5052141;28;20244;-83
2022/03/23 02:39:58;;;;;;;28.03;11.37;;;;;;;0.44;77.10;100258.97;5052035;28;21002;-83
2022/03/23 02:42:23;;;;;;;27.63;12.03;;;;;;;1.72;77.64;100487.47;5061573;28;20162;-82
2022/03/23 02:44:49;;;;;;;26.43;13.30;;;;;;;2.35;76.45;100564.19;5039962;28;20166;-85
2022/03/23 02:47:14;;;;;;;27.50;12.53;;;;;;;1.76;77.48;100502.00;5053252;28;20186;-83
2022/03/23 02:49:40;;;;;;;22.53;9.40;;;;;;;-0.75;77.27;100061.53;5053388;28;20781;-84
2022/03/23 02:52:05;;;;;;;21.70;8.67;;;;;;;1.57;77.69;100478.50;5052813;28;20193;-83
2022/03/23 03:03:16;;;;;;;26.17;9.37;;;;;;;2.58;75.21;100566.34;5051753;28;20396;-84
2022/03/23 03:05:42;;;;;;;19.23;8.73;;;;;;;2.20;75.52;100512.78;5033801;28;20407;-84
2022/03/23 03:10:51;;;;;;;22.23;8.80;;;;;;;2.41;75.78;100512.31;5052247;28;20210;-84
2022/03/23 03:13:16;;;;;;;17.97;7.93;;;;;;;2.42;75.32;100541.53;5051661;28;20486;-84
2022/03/23 03:15:42;;;;;;;23.20;10.07;;;;;;;1.94;75.26;100465.41;5051189;28;20564;-84
2022/03/23 03:18:07;;;;;;;20.13;9.13;;;;;;;1.35;75.46;100351.59;5051366;28;20161;-85
2022/03/23 03:20:32;;;;;;;23.23;11.17;;;;;;;2.12;75.64;100478.72;5051341;28;20275;-84
2022/03/23 03:22:58;;;;;;;22.80;10.73;;;;;;;2.16;75.39;100505.75;5033374;28;20171;-83
2022/03/23 03:25:24;;;;;;;22.43;9.30;;;;;;;1.44;75.57;100362.44;5051467;28;20162;-84
2022/03/23 03:27:50;;;;;;;24.10;12.93;;;;;;;2.38;75.51;100552.88;5051024;28;20185;-84
2022/03/23 03:30:18;;;;;;;20.30;9.93;;;;;;;2.36;75.76;100549.34;5051357;28;20655;-85
2022/03/23 03:32:44;;;;;;;22.03;11.10;;;;;;;1.87;74.35;100437.25;5051503;28;20161;-83
2022/03/23 03:35:11;;;;;;;20.43;9.50;;;;;;;2.41;74.55;100547.28;5051472;28;20403;-84
2022/03/23 03:37:37;;;;;;;19.37;9.70;;;;;;;1.52;75.59;100441.38;5051145;28;20436;-84
2022/03/23 03:40:04;;;;;;;26.73;8.90;;;;;;;0.07;75.77;100212.94;5051188;28;20621;-84
2022/03/23 03:42:30;;;;;;;20.27;8.97;;;;;;;1.03;76.40;100373.47;5051478;28;20932;-84
2022/03/23 03:44:57;;;;;;;13.53;6.73;;;;;;;1.06;77.33;100406.19;5051509;28;20400;-84
2022/03/23 03:47:23;;;;;;;20.33;7.47;;;;;;;1.76;78.08;100549.41;5033975;28;20582;-83
2022/03/23 03:49:49;;;;;;;19.60;8.87;;;;;;;0.12;78.00;100282.38;5051216;28;20483;-83
2022/03/23 03:52:14;;;;;;;18.77;8.13;;;;;;;1.11;78.88;100423.34;5033546;28;20947;-84
2022/03/23 03:54:40;;;;;;;18.50;8.10;;;;;;;-0.41;78.37;100159.31;5034539;28;20170;-85
2022/03/23 03:57:05;;;;;;;19.77;8.77;;;;;;;1.83;78.67;100570.88;5055511;28;20158;-84
2022/03/23 03:59:31;;;;;;;18.27;9.47;;;;;;;1.27;77.45;100460.59;5055985;28;20161;-84
2022/03/23 04:01:56;;;;;;;19.83;9.30;;;;;;;1.56;76.98;100469.28;5054600;28;20244;-85
2022/03/23 04:04:22;;;;;;;21.13;9.00;;;;;;;-0.32;77.74;100198.38;5055202;28;20567;-84
2022/03/23 04:06:47;;;;;;;22.37;9.40;;;;;;;1.33;77.45;100471.19;5055249;28;20637;-83
2022/03/23 04:09:13;;;;;;;20.23;9.20;;;;;;;0.65;77.71;100346.47;5054810;28;20189;-83
2022/03/23 04:11:39;;;;;;;31.17;12.17;;;;;;;1.91;77.66;100552.50;5038782;28;20193;-82
2022/03/23 04:14:05;;;;;;;27.23;13.53;;;;;;;1.90;76.47;100559.81;5059304;28;20244;-83
2022/03/23 04:16:30;;;;;;;31.03;12.70;;;;;;;0.74;77.25;100373.19;5062725;28;20195;-82
2022/03/23 04:18:56;;;;;;;25.17;11.60;;;;;;;0.32;77.19;100315.06;5067790;28;20182;-83
2022/03/23 04:21:23;;;;;;;41.03;17.70;;;;;;;1.19;77.01;100498.88;5079183;28;20180;-83
2022/03/23 04:23:48;;;;;;;88.17;37.70;;;;;;;-0.95;77.16;100127.38;5060709;28;20691;-84
2022/03/23 04:26:14;;;;;;;136.53;56.10;;;;;;;1.61;77.16;100592.88;5037278;28;20404;-85
2022/03/23 04:28:39;;;;;;;72.67;34.60;;;;;;;0.16;76.94;100320.91;5036972;28;20201;-83
2022/03/23 04:31:06;;;;;;;59.33;27.00;;;;;;;0.03;76.77;100296.38;5055225;28;20610;-85
2022/03/23 04:33:31;;;;;;;60.70;29.03;;;;;;;-0.44;76.05;100234.47;5036962;28;20634;-85
2022/03/23 04:35:57;;;;;;;59.70;28.50;;;;;;;0.73;76.36;100462.72;5054138;28;20446;-85
2022/03/23 04:38:23;;;;;;;66.03;33.33;;;;;;;0.27;76.10;100380.97;5054009;28;20161;-84
2022/03/23 04:40:49;;;;;;;61.37;28.37;;;;;;;0.68;76.40;100447.31;5054331;28;20245;-85
2022/03/23 04:43:15;;;;;;;48.30;22.80;;;;;;;0.45;76.73;100415.16;5055209;28;20169;-84
2022/03/23 04:45:42;;;;;;;51.45;25.73;;;;;;;0.00;78.41;100398.16;5038190;28;20808;-84
2022/03/23 04:48:08;;;;;;;32.08;14.93;;;;;;;-0.66;78.67;100297.72;5059784;28;20649;-85
2022/03/23 04:50:34;;;;;;;34.70;14.03;;;;;;;0.14;80.96;100507.44;5054408;28;20287;-85
2022/03/23 04:52:59;;;;;;;44.30;21.75;;;;;;;-0.75;80.26;100309.22;5036785;28;20181;-83
2022/03/23 04:55:25;;;;;;;32.40;15.50;;;;;;;-0.74;79.96;100340.78;5036508;28;20564;-84
2022/03/23 04:57:50;;;;;;;47.83;22.63;;;;;;;-2.90;80.93;99955.97;5037009;28;20259;-83
2022/03/23 05:00:17;;;;;;;47.53;23.87;;;;;;;-0.73;79.77;100301.19;5054001;28;20188;-82
2022/03/23 05:02:44;;;;;;;50.25;22.85;;;;;;;1.16;78.94;100568.41;5053619;28;20707;-84
2022/03/23 05:05:14;;;;;;;35.90;17.33;;;;;;;-0.92;79.29;100225.50;5035537;28;20181;-84
2022/03/23 05:07:41;;;;;;;32.08;16.17;;;;;;;-1.11;79.41;100221.00;5053570;28;20681;-82
2022/03/23 05:10:08;;;;;;;32.22;13.93;;;;;;;0.64;80.06;100507.53;5035891;28;20177;-84
2022/03/23 05:12:35;;;;;;;35.20;16.95;;;;;;;-0.12;80.18;100374.50;5035934;28;20207;-83
2022/03/23 05:15:01;;;;;;;36.83;16.50;;;;;;;0.02;80.43;100413.22;5053820;28;20165;-84
2022/03/23 05:17:26;;;;;;;31.23;14.37;;;;;;;0.99;79.75;100593.31;5035893;28;20257;-84
2022/03/23 05:19:52;;;;;;;25.47;12.13;;;;;;;-0.75;79.69;100280.28;5053369;28;20227;-84
2022/03/23 05:22:17;;;;;;;38.90;17.27;;;;;;;-1.30;79.61;100156.16;5053248;28;20608;-83
2022/03/23 05:24:42;;;;;;;44.40;17.30;;;;;;;-1.13;78.98;100186.06;5053906;28;20158;-83
2022/03/23 05:27:11;;;;;;;42.87;19.40;;;;;;;-1.03;78.91;100177.91;5054374;28;20193;-84
2022/03/23 05:29:36;;;;;;;33.00;16.60;;;;;;;0.00;78.21;100321.00;5060381;28;20556;-85
2022/03/23 05:32:03;;;;;;;33.20;14.77;;;;;;;0.96;78.23;100498.28;5062709;28;20651;-85
2022/03/23 05:34:28;;;;;;;44.95;20.55;;;;;;;-0.22;78.18;100277.31;5055444;28;20236;-84
2022/03/23 05:36:54;;;;;;;39.30;18.27;;;;;;;0.06;76.93;100310.75;5054099;28;20243;-83
2022/03/23 05:39:20;;;;;;;32.80;15.60;;;;;;;1.20;76.80;100448.28;5053943;28;20224;-84
2022/03/23 05:41:45;;;;;;;25.55;12.18;;;;;;;1.90;76.76;100575.69;5053945;28;20154;-84
2022/03/23 05:44:11;;;;;;;26.63;13.80;;;;;;;1.81;75.52;100507.44;5054406;28;20220;-84
2022/03/23 05:46:36;;;;;;;46.10;21.20;;;;;;;0.86;76.00;100331.09;5054267;28;20172;-85
2022/03/23 05:49:03;;;;;;;23.17;9.50;;;;;;;-0.14;74.96;100140.47;5049666;28;20165;-84
2022/03/23 05:51:29;;;;;;;22.90;11.03;;;;;;;1.77;73.83;100445.47;5067017;28;20163;-85
2022/03/23 05:53:54;;;;;;;25.70;10.73;;;;;;;2.72;73.50;100589.38;5033928;28;20569;-83
2022/03/23 05:56:20;;;;;;;25.17;12.57;;;;;;;1.10;71.99;100299.41;5053203;28;20257;-84
2022/03/23 05:58:45;;;;;;;37.87;16.60;;;;;;;2.61;71.16;100500.00;5052198;28;20176;-85
2022/03/23 06:01:10;;;;;;;26.27;12.00;;;;;;;3.18;71.29;100594.50;5051627;28;20675;-85
2022/03/23 06:03:36;;;;;;;30.97;14.77;;;;;;;3.34;70.64;100584.25;5054117;28;20166;-85
2022/03/23 06:06:03;;;;;;;38.07;18.63;;;;;;;2.16;69.85;100348.41;5068313;28;20215;-84
2022/03/23 06:08:28;;;;;;;59.47;30.40;;;;;;;1.47;67.79;100181.50;5075962;28;20653;-84
2022/03/23 06:10:54;;;;;;;43.67;21.37;;;;;;;1.98;67.37;100246.88;5073842;28;20426;-83
2022/03/23 06:13:20;;;;;;;27.97;12.00;;;;;;;3.99;66.23;100598.53;5064097;28;21333;-83
2022/03/23 06:15:46;;;;;;;25.17;11.67;;;;;;;4.18;65.03;100596.91;5062215;28;20192;-83
2022/03/23 06:18:12;;;;;;;35.27;17.80;;;;;;;3.55;64.43;100474.41;5064410;28;20554;-84
2022/03/23 06:20:37;;;;;;;20.23;10.33;;;;;;;4.26;62.96;100554.09;5062823;28;20172;-84
2022/03/23 06:23:03;;;;;;;46.27;19.53;;;;;;;3.66;62.01;100405.25;5045562;28;20172;-85
2022/03/23 06:25:29;;;;;;;25.30;10.83;;;;;;;2.46;61.39;100128.81;5062702;28;20166;-85
2022/03/23 06:27:54;;;;;;;17.70;8.70;;;;;;;5.36;59.54;100579.47;5064334;28;20450;-84
2022/03/23 06:30:20;;;;;;;27.20;12.63;;;;;;;5.28;59.20;100536.91;5064856;28;20606;-83
2022/03/23 06:32:45;;;;;;;22.50;8.70;;;;;;;2.84;59.67;100162.97;5062133;28;20580;-84
2022/03/23 06:35:11;;;;;;;22.10;9.30;;;;;;;5.00;58.84;100473.50;5061734;28;20183;-85
2022/03/23 06:37:37;;;;;;;27.53;12.10;;;;;;;4.41;58.69;100340.69;5066668;28;20168;-84
2022/03/23 06:40:05;;;;;;;34.23;16.20;;;;;;;6.12;57.44;100560.59;5077789;28;20474;-84
2022/03/23 06:42:30;;;;;;;27.07;12.47;;;;;;;4.64;57.86;100350.13;5086743;28;20193;-85
2022/03/23 06:44:56;;;;;;;31.50;14.57;;;;;;;4.56;55.69;100300.97;5064745;28;20790;-83
2022/03/23 06:47:21;;;;;;;26.63;12.60;;;;;;;4.31;55.32;100254.59;5069218;28;20290;-83
2022/03/23 06:49:47;;;;;;;28.23;14.90;;;;;;;5.64;55.19;100452.00;5063236;28;20169;-84
2022/03/23 06:52:12;;;;;;;33.17;14.90;;;;;;;5.55;54.79;100410.22;5064305;28;20174;-84
2022/03/23 06:54:38;;;;;;;15.83;7.93;;;;;;;5.88;53.30;100448.03;5041848;28;20297;-86
2022/03/23 06:57:04;;;;;;;34.80;15.60;;;;;;;4.27;52.64;100134.81;5053618;28;20192;-83
2022/03/23 06:59:29;;;;;;;29.60;15.17;;;;;;;5.49;51.64;100287.56;5050205;28;20181;-85
2022/03/23 07:01:55;;;;;;;36.07;18.87;;;;;;;5.42;51.81;100259.31;5023479;28;20440;-84
2022/03/23 07:04:24;;;;;;;29.00;15.17;;;;;;;7.26;50.12;100488.84;5021276;28;20634;-84
2022/03/23 07:06:51;;;;;;;23.30;12.10;;;;;;;7.20;50.16;100445.59;5070811;28;20177;-85
2022/03/23 07:09:38;;;;;;;20.87;9.77;;;;;;;6.59;49.17;100292.63;5055238;28;20797;-87
2022/03/23 07:12:06;;;;;;;18.73;8.67;;;;;;;6.89;48.79;100304.91;5072446;28;20784;-85
2022/03/23 07:14:33;;;;;;;16.67;8.60;;;;;;;8.02;48.77;100553.28;5072352;28;20414;-86
2022/03/23 07:16:59;;;;;;;41.73;18.77;;;;;;;8.31;46.50;100546.16;5074508;28;20517;-89
2022/03/23 07:19:24;;;;;;;13.73;6.10;;;;;;;8.10;45.13;100468.97;5073810;28;20482;-88
2022/03/23 07:21:51;;;;;;;26.03;12.57;;;;;;;8.93;45.30;100553.03;5055827;28;20199;-87
2022/03/23 07:24:17;;;;;;;17.20;8.90;;;;;;;7.60;46.25;100379.69;5057561;28;20180;-87
2022/03/23 07:26:42;;;;;;;10.00;5.10;;;;;;;6.90;44.44;100257.94;5045836;28;20423;-89
2022/03/23 07:29:08;;;;;;;14.17;6.87;;;;;;;6.84;44.23;100224.81;5057385;28;20177;-87
2022/03/23 07:31:34;;;;;;;14.67;7.13;;;;;;;8.52;44.11;100476.13;5073421;28;20193;-88
2022/03/23 07:34:00;;;;;;;12.00;5.73;;;;;;;6.97;43.55;100230.81;5083314;28;20296;-87
2022/03/23 07:36:26;;;;;;;9.97;5.53;;;;;;;8.74;44.03;100545.84;5049415;28;20188;-85
2022/03/23 07:38:52;;;;;;;36.10;15.03;;;;;;;8.80;43.77;100435.19;5063167;28;20221;-88
2022/03/23 07:41:18;;;;;;;21.33;10.77;;;;;;;9.09;42.50;100446.38;5058135;28;20177;-89
2022/03/23 07:43:43;;;;;;;20.33;10.90;;;;;;;7.47;42.42;100178.91;5055336;28;20177;-88
2022/03/23 07:46:09;;;;;;;12.67;5.47;;;;;;;8.70;41.87;100343.59;5057491;28;20181;-90
2022/03/23 07:48:34;;;;;;;21.30;10.07;;;;;;;9.10;41.22;100395.94;5057647;28;20185;-90
2022/03/23 07:51:00;;;;;;;10.70;5.43;;;;;;;8.40;41.34;100322.28;5050827;28;20176;-88
2022/03/23 07:53:28;;;;;;;12.07;5.10;;;;;;;9.81;41.51;100533.66;5047291;28;20285;-90
2022/03/23 07:55:54;;;;;;;11.67;5.10;;;;;;;8.17;40.97;100234.94;5045193;28;20177;-91
2022/03/23 07:58:21;;;;;;;11.50;4.50;;;;;;;10.39;39.36;100534.09;5053044;28;20265;-86
2022/03/23 08:00:47;;;;;;;13.73;7.23;;;;;;;9.85;39.29;100521.34;5074681;28;20194;-89
2022/03/23 08:03:13;;;;;;;9.50;5.83;;;;;;;9.77;39.23;100504.81;5055018;28;20277;-89
2022/03/23 08:05:45;;;;;;;9.23;4.73;;;;;;;9.80;39.26;100499.94;5040009;28;20234;-90
2022/03/23 08:08:10;;;;;;;8.13;4.80;;;;;;;10.55;38.66;100544.38;5040620;28;20258;-89
2022/03/23 08:10:37;;;;;;;10.97;5.60;;;;;;;8.21;38.36;100135.97;5072279;28;20185;-89
2022/03/23 08:13:03;;;;;;;14.23;5.60;;;;;;;10.52;38.22;100439.53;5054177;28;20264;-87
2022/03/23 08:15:29;;;;;;;6.43;3.63;;;;;;;11.16;37.52;100516.03;5039896;28;20260;-88
2022/03/23 08:17:56;;;;;;;9.40;4.47;;;;;;;7.90;38.11;100081.84;5066693;28;20204;-88
2022/03/23 08:20:35;;;;;;;11.63;5.53;;;;;;;10.48;38.65;100505.94;5053958;28;20178;-89
2022/03/23 08:23:03;;;;;;;15.93;6.03;;;;;;;9.30;38.19;100279.34;5050402;28;20177;-90
2022/03/23 08:25:29;;;;;;;11.87;4.83;;;;;;;10.37;36.63;100420.88;5030564;28;20267;-89
2022/03/23 08:27:56;;;;;;;15.67;6.43;;;;;;;11.70;36.79;100523.44;5056922;28;20296;-88
2022/03/23 08:30:21;;;;;;;8.60;4.53;;;;;;;9.20;35.95;100119.53;5051705;28;20204;-89
2022/03/23 08:32:47;;;;;;;8.93;4.33;;;;;;;9.15;35.81;100052.69;5048726;28;20165;-89
2022/03/23 08:35:12;;;;;;;11.33;6.17;;;;;;;11.88;35.30;100470.34;5046522;28;20181;-90
2022/03/23 08:37:41;;;;;;;17.53;8.40;;;;;;;10.38;35.08;100149.28;5029126;28;20185;-88
2022/03/23 08:40:07;;;;;;;23.83;10.40;;;;;;;11.34;34.51;100282.13;5036446;28;20221;-89
2022/03/23 08:42:33;;;;;;;10.67;5.60;;;;;;;10.74;35.04;100290.59;5045773;28;20181;-88
2022/03/23 08:44:58;;;;;;;12.57;5.87;;;;;;;11.45;34.44;100342.78;5037885;28;20184;-90
2022/03/23 08:47:24;;;;;;;8.67;3.90;;;;;;;10.54;34.02;100212.63;5054334;28;20194;-88
2022/03/23 08:49:49;;;;;;;6.97;4.27;;;;;;;11.70;33.72;100416.06;5073091;28;20237;-88
2022/03/23 08:52:15;;;;;;;9.73;3.83;;;;;;;12.50;33.30;100514.38;5043182;28;20181;-86
2022/03/23 08:54:41;;;;;;;6.27;3.77;;;;;;;10.95;34.36;100281.69;5065901;28;20255;-88
2022/03/23 08:57:06;;;;;;;7.20;4.20;;;;;;;10.56;34.03;100265.09;5044571;28;20264;-88
2022/03/23 08:59:32;;;;;;;7.57;4.70;;;;;;;12.91;33.13;100497.09;5022357;28;20251;-88
2022/03/23 09:01:58;;;;;;;11.57;6.07;;;;;;;12.04;32.57;100338.41;5035299;28;20555;-87
2022/03/23 09:04:23;;;;;;;8.60;4.60;;;;;;;10.80;32.93;100181.16;5038251;28;20192;-88
2022/03/23 09:06:49;;;;;;;15.77;8.47;;;;;;;10.72;33.04;100185.81;5039858;28;20215;-87
2022/03/23 09:09:15;;;;;;;9.90;5.20;;;;;;;11.90;32.61;100329.19;5032803;28;20186;-87
2022/03/23 09:11:43;;;;;;;12.43;6.17;;;;;;;12.80;31.96;100347.44;5041220;28;20235;-88
2022/03/23 09:14:10;;;;;;;9.10;4.70;;;;;;;11.41;32.77;100291.81;5045307;28;20178;-89
2022/03/23 09:16:37;;;;;;;8.43;4.07;;;;;;;12.46;32.33;100491.28;5041948;28;20183;-87
2022/03/23 09:19:02;;;;;;;9.13;4.13;;;;;;;9.48;33.25;100057.19;5045395;28;20181;-89
2022/03/23 09:21:28;;;;;;;10.67;5.40;;;;;;;11.97;32.30;100294.88;5046646;28;20183;-87
2022/03/23 09:23:53;;;;;;;6.70;3.90;;;;;;;12.46;31.47;100298.25;5061490;28;20195;-87
2022/03/23 09:26:19;;;;;;;14.90;8.17;;;;;;;12.66;31.33;100297.59;5044611;28;20188;-86
2022/03/23 09:28:44;;;;;;;7.63;3.70;;;;;;;11.47;31.38;100167.91;5056678;28;20210;-88
2022/03/23 09:31:10;;;;;;;18.40;9.40;;;;;;;11.72;31.83;100212.41;5041890;28;20223;-87
2022/03/23 09:33:36;;;;;;;14.07;5.83;;;;;;;12.56;31.54;100353.78;5034982;28;20213;-86
2022/03/23 09:36:01;;;;;;;15.80;8.17;;;;;;;12.50;32.01;100372.13;5045435;28;20601;-87
2022/03/23 09:38:26;;;;;;;9.03;5.17;;;;;;;13.33;31.42;100479.78;5046972;28;20229;-86
2022/03/23 09:40:52;;;;;;;6.97;4.20;;;;;;;12.77;30.11;100311.72;5051635;28;20177;-87
2022/03/23 09:43:23;;;;;;;7.80;4.30;;;;;;;13.95;30.08;100411.56;5037378;28;20651;-86
2022/03/23 09:45:51;;;;;;;11.13;4.10;;;;;;;13.47;30.14;100387.19;5035381;28;20578;-87
2022/03/23 09:48:21;;;;;;;7.03;3.83;;;;;;;12.47;31.09;100275.47;5045380;28;20229;-88
2022/03/23 09:50:53;;;;;;;6.90;4.50;;;;;;;14.08;30.31;100378.19;5056968;28;20274;-87
2022/03/23 09:53:21;;;;;;;13.57;7.13;;;;;;;14.32;29.40;100384.44;5066443;28;20185;-85
2022/03/23 09:55:48;;;;;;;8.97;4.40;;;;;;;14.54;28.14;100376.91;5050553;28;20173;-87
2022/03/23 09:58:14;;;;;;;10.47;5.07;;;;;;;13.77;28.55;100313.97;5048289;28;20177;-89
2022/03/23 10:00:44;;;;;;;7.33;3.80;;;;;;;14.13;28.03;100313.06;5043336;28;20191;-88
2022/03/23 10:03:12;;;;;;;11.37;3.83;;;;;;;15.35;27.61;100455.19;5062985;28;20200;-86
2022/03/23 10:06:05;;;;;;;9.57;4.07;;;;;;;14.38;27.63;100264.09;5043474;28;20184;-88
2022/03/23 10:08:49;;;;;;;7.40;4.50;;;;;;;15.46;27.91;100466.75;5036365;28;20292;-89
2022/03/23 10:11:42;;;;;;;8.17;4.37;;;;;;;15.26;28.50;100462.44;5053211;28;20168;-88
2022/03/23 10:14:52;;;;;;;9.67;4.17;;;;;;;15.40;28.23;100451.13;5061574;28;20240;-89
2022/03/23 10:17:49;;;;;;;9.37;3.90;;;;;;;14.97;28.06;100450.16;5056030;28;20173;-88
2022/03/23 10:20:15;;;;;;;6.37;3.73;;;;;;;13.92;28.33;100266.31;4945476;29;20270;-89
2022/03/23 10:22:51;;;;;;;7.43;3.83;;;;;;;15.00;28.06;100463.00;4966140;28;20232;-89
2022/03/23 10:25:26;;;;;;;7.97;3.90;;;;;;;13.50;28.73;100271.22;4962534;28;20200;-90
2022/03/23 10:27:52;;;;;;;8.63;5.00;;;;;;;12.74;29.71;100253.13;4934381;29;20223;-88
2022/03/23 10:30:18;;;;;;;8.57;4.10;;;;;;;12.92;29.27;100205.69;4941434;29;20193;-90
2022/03/23 10:32:43;;;;;;;17.23;7.43;;;;;;;13.55;29.12;100251.94;4954274;29;20241;-90
2022/03/23 10:35:15;;;;;;;10.67;5.60;;;;;;;13.89;28.36;100255.97;4964954;29;20206;-90
2022/03/23 10:37:41;;;;;;;6.67;3.40;;;;;;;13.54;27.09;100222.19;4947462;29;20572;-90
2022/03/23 10:40:18;;;;;;;7.80;4.07;;;;;;;13.35;27.48;100150.09;4946619;29;20326;-88
2022/03/23 10:42:45;;;;;;;8.97;5.13;;;;;;;14.60;28.15;100412.00;4951497;29;20812;-90
2022/03/23 10:45:16;;;;;;;5.93;3.60;;;;;;;13.53;27.35;100228.09;4955770;28;20263;-89
2022/03/23 10:47:42;;;;;;;9.53;4.17;;;;;;;14.04;27.86;100303.34;4950310;28;20212;-89
2022/03/23 10:50:23;;;;;;;8.30;4.47;;;;;;;13.15;27.64;100148.34;4951604;28;20231;-88
2022/03/23 10:53:03;;;;;;;8.00;3.60;;;;;;;14.76;27.36;100402.53;4947512;28;20243;-88
2022/03/23 10:55:35;;;;;;;8.50;3.60;;;;;;;14.85;27.27;100368.91;4946256;28;20203;-88
2022/03/23 10:58:07;;;;;;;6.40;4.10;;;;;;;14.99;27.51;100383.09;5029514;28;20192;-89
2022/03/23 11:00:38;;;;;;;5.10;3.47;;;;;;;14.03;27.29;100296.53;5044557;28;20272;-89
2022/03/23 11:03:06;;;;;;;5.80;3.60;;;;;;;14.43;27.07;100374.69;5051103;28;20184;-89
2022/03/23 11:05:41;;;;;;;8.70;4.67;;;;;;;14.69;27.24;100384.38;5040930;28;20182;-87
2022/03/23 11:08:15;;;;;;;7.33;3.67;;;;;;;13.11;26.89;100167.66;5056593;28;20301;-90
2022/03/23 11:16:16;;;;;;;7.50;3.70;;;;;;;15.31;25.95;100330.84;5074519;28;20191;-91
2022/03/23 11:18:42;;;;;;;8.47;4.13;;;;;;;14.06;25.72;100087.84;5043149;28;20181;-92
2022/03/23 11:21:08;;;;;;;5.50;3.60;;;;;;;15.12;25.51;100195.72;5033287;28;20192;-89
2022/03/23 11:23:39;;;;;;;6.93;3.53;;;;;;;14.86;25.38;100173.47;5043273;28;20193;-92
2022/03/23 11:26:10;;;;;;;10.77;4.77;;;;;;;12.91;26.49;99878.69;5074644;28;20192;-89
2022/03/23 11:28:52;;;;;;;7.30;4.03;;;;;;;14.35;25.89;100188.41;5073701;28;20204;-90
2022/03/23 11:31:18;;;;;;;5.77;3.40;;;;;;;13.26;26.20;100081.91;5036159;28;20181;-87
2022/03/23 11:33:54;;;;;;;6.90;3.30;;;;;;;14.91;25.90;100345.34;5057266;28;20177;-89
2022/03/23 11:36:22;;;;;;;4.50;3.23;;;;;;;14.31;26.04;100222.16;5033237;28;20185;-90
2022/03/23 11:38:51;;;;;;;4.13;3.20;;;;;;;14.63;25.80;100206.56;5035550;28;20229;-90